デリー の空港の天気 - METARとTAF

インディラ・ガンディー国際空港 ( VIDP / DEL ) - インド デリー
飛行場実況気象(Metar)
観測時間05/25 15:30 IST (05/25 10:00 UTC)
風向・風速北東 3m/s 瞬間風速8m/s
視程3500m
天気現象煙霧
全天の4割程度の雲 雲底高度 1220m
気温41℃
湿度19%
気圧1001hPa
METARVIDP 251000Z 04005G15KT 3500 HZ SCT040 41/13 Q1001 NOSIG
過去の天気等 Google飛行場航空写真 Wunderground天気予報

過去48時間のMETAR

飛行場予報(TAF)
発表時間: 5/25 10:30 IST (5/25 05:00 UTC)
予報対象時間: 25日11時 IST ~ 26日17時 IST
風向・風速西北西 5m/s
視程4,000m
天気現象煙霧
なし
25日13時 IST ~ 25日15時 IST に徐々に
風向・風速西北西 4m/s 瞬間風速 9m/s
視程5,000m
天気現象煙霧
少しの雲 雲底高度 1,220m
25日15時 IST ~ 25日19時 IST に一時的に
少しの塔状積雲 雲底高度 1,070m
25日20時 IST ~ 25日22時 IST に徐々に
風向・風速西南西 3m/s
視程3,000m
天気現象煙霧
26日9時 IST ~ 26日11時 IST に徐々に
風向・風速西北西 5m/s
視程4,000m
天気現象煙霧
TAF VIDP 250500Z 2506/2612 29010KT 4000 HZ NSC
BECMG 2508/2510 30008G18KT 5000 HZ FEW040
TEMPO 2510/2514 FEW035TCU
BECMG 2515/2517 25005KT 3000 HZ
BECMG 2604/2606 30010KT 4000 HZ